Time;durP1;ratioP1;P1;durP2;ratioP2;P2;SDS_P1;SDS_P2;PMS_P1;PMS_P2;Temp;Humidity;BMP_temperature;BMP_pressure;BME280_temperature;BME280_humidity;BME280_pressure;Samples;Min_cycle;Max_cycle;Signal;HPM_P1;HPM_P2
2022/02/09 00:00:06;;;;;;;10.00;8.10;;;10.00;99.90;;;;;;5015672;28;20193;-86
2022/02/09 00:06:09;;;;;;;8.80;7.40;;;10.10;99.90;;;;;;5017234;28;20225;-87
2022/02/09 00:08:02;;;;;;;8.60;7.70;;;10.10;99.90;;;;;;5015999;28;20265;-86
2022/02/09 00:10:30;;;;;;;7.23;6.37;;;10.00;99.90;;;;;;5015696;28;20178;-87
2022/02/09 00:13:14;;;;;;;10.20;7.10;;;10.20;99.90;;;;;;5031373;28;20178;-85
2022/02/09 00:24:30;;;;;;;8.50;7.07;;;10.10;99.90;;;;;;5036990;28;20182;-86
2022/02/09 00:41:12;;;;;;;6.40;5.53;;;10.00;99.90;;;;;;5015263;28;20170;-86
2022/02/09 00:43:51;;;;;;;7.37;5.63;;;10.00;99.90;;;;;;5015817;28;20178;-87
2022/02/09 01:57:09;;;;;;;4.40;3.80;;;10.10;99.90;;;;;;5025131;28;20276;-87
2022/02/09 01:59:36;;;;;;;6.00;3.83;;;10.00;99.90;;;;;;5030456;28;20677;-84
2022/02/09 02:02:02;;;;;;;4.80;3.63;;;10.00;99.90;;;;;;5029821;28;20178;-84
2022/02/09 02:04:31;;;;;;;4.83;3.30;;;10.10;99.90;;;;;;5034032;28;20174;-85
2022/02/09 02:06:59;;;;;;;5.10;3.77;;;10.20;99.60;;;;;;5023513;28;20166;-89
2022/02/09 02:09:31;;;;;;;4.73;3.33;;;10.20;99.00;;;;;;5019291;28;20198;-86
2022/02/09 02:12:03;;;;;;;4.80;3.03;;;10.30;98.70;;;;;;5018405;28;20533;-85
2022/02/09 02:17:11;;;;;;;4.90;3.27;;;10.30;97.40;;;;;;5019559;28;20174;-86
2022/02/09 02:20:00;;;;;;;5.10;3.30;;;10.30;97.50;;;;;;5019355;28;20181;-87
2022/02/09 02:22:44;;;;;;;3.80;2.97;;;10.30;97.80;;;;;;5018850;28;20537;-86
2022/02/09 02:25:41;;;;;;;4.03;3.10;;;10.20;98.00;;;;;;5018139;28;20185;-86
2022/02/09 03:12:00;;;;;;;7.80;6.07;;;10.00;99.90;;;;;;5028022;28;20174;-86
2022/02/09 03:14:32;;;;;;;9.17;6.70;;;10.10;99.90;;;;;;5032826;28;20201;-87
2022/02/09 03:17:03;;;;;;;7.53;6.37;;;10.10;99.90;;;;;;5035986;28;20173;-84
2022/02/09 03:49:16;;;;;;;7.50;6.30;;;10.00;99.90;;;;;;5016609;28;20174;-87
2022/02/09 03:54:23;;;;;;;6.77;5.97;;;9.80;99.90;;;;;;5019627;28;20186;-89
2022/02/09 03:56:59;;;;;;;8.43;6.83;;;10.00;99.90;;;;;;5019275;28;20189;-88
2022/02/09 03:59:27;;;;;;;7.60;6.30;;;9.90;99.90;;;;;;5020072;28;20190;-87
2022/02/09 04:01:54;;;;;;;9.17;6.47;;;9.90;99.90;;;;;;5016872;28;20727;-87
2022/02/09 04:04:20;;;;;;;7.80;6.80;;;10.00;99.90;;;;;;5015910;28;20170;-85
2022/02/09 04:06:49;;;;;;;8.43;6.87;;;10.00;99.90;;;;;;5016600;28;20229;-86
2022/02/09 04:09:17;;;;;;;9.40;6.77;;;10.00;99.90;;;;;;5023695;28;20174;-86
2022/02/09 04:36:22;;;;;;;9.27;7.33;;;10.00;99.90;;;;;;5019891;28;20189;-87
2022/02/09 04:38:55;;;;;;;10.80;8.03;;;9.90;99.90;;;;;;5019001;28;20221;-86
2022/02/09 04:54:26;;;;;;;9.23;7.87;;;10.00;99.90;;;;;;5040219;28;20213;-85
2022/02/09 04:57:00;;;;;;;11.20;8.37;;;9.90;99.90;;;;;;5037088;28;20163;-85
2022/02/09 04:59:35;;;;;;;10.33;8.30;;;10.00;99.90;;;;;;5040751;28;20197;-84
2022/02/09 05:02:29;;;;;;;10.03;8.33;;;9.90;99.90;;;;;;5039497;28;20213;-85
2022/02/09 05:05:34;;;;;;;10.57;8.27;;;9.90;99.90;;;;;;5034633;28;20154;-86
2022/02/09 05:25:01;;;;;;;9.47;8.10;;;9.80;99.90;;;;;;5018978;28;20627;-86
2022/02/09 05:29:25;;;;;;;10.13;9.03;;;9.80;99.90;;;;;;5024722;28;20166;-85
2022/02/09 05:31:51;;;;;;;10.97;8.80;;;9.80;99.90;;;;;;5021790;28;20174;-86
2022/02/09 05:34:17;;;;;;;11.67;9.37;;;9.80;99.90;;;;;;5020268;28;20158;-86
2022/02/09 05:36:42;;;;;;;11.27;9.30;;;9.80;99.90;;;;;;5018188;28;20190;-87
2022/02/09 05:39:12;;;;;;;11.53;8.90;;;9.80;99.90;;;;;;5017810;28;20220;-85
2022/02/09 05:41:43;;;;;;;11.10;9.60;;;9.90;99.90;;;;;;5017390;28;20209;-86
2022/02/09 05:44:10;;;;;;;10.50;9.17;;;9.90;99.90;;;;;;5018558;28;20163;-87
2022/02/09 05:51:53;;;;;;;10.80;8.47;;;9.90;99.90;;;;;;5019016;28;20178;-88
2022/02/09 05:54:38;;;;;;;10.40;9.03;;;9.90;99.90;;;;;;5021791;28;20173;-87
2022/02/09 05:57:32;;;;;;;10.13;8.37;;;9.80;99.90;;;;;;5019968;28;20171;-86
2022/02/09 05:59:53;;;;;;;10.73;8.03;;;9.80;99.90;;;;;;5019189;28;20190;-87
2022/02/09 06:02:21;;;;;;;10.37;8.37;;;9.80;99.90;;;;;;5023323;28;20234;-85
2022/02/09 06:04:47;;;;;;;10.67;8.20;;;10.00;99.90;;;;;;5033994;28;20204;-85
2022/02/09 06:07:16;;;;;;;9.20;7.13;;;9.70;99.90;;;;;;5036000;28;20195;-86
2022/02/09 06:09:42;;;;;;;8.97;7.37;;;9.80;99.50;;;;;;5028434;28;20288;-88
2022/02/09 06:12:18;;;;;;;10.33;7.47;;;9.90;99.30;;;;;;5019761;28;20229;-87
2022/02/09 06:20:08;;;;;;;7.47;6.50;;;9.80;99.10;;;;;;5033721;28;20181;-88
2022/02/09 06:22:34;;;;;;;9.60;7.00;;;9.90;98.80;;;;;;5033654;28;20209;-89
2022/02/09 06:25:00;;;;;;;7.40;5.83;;;10.00;98.00;;;;;;5027071;28;20240;-89
2022/02/09 06:27:27;;;;;;;6.87;5.93;;;9.90;97.80;;;;;;5025281;28;20166;-90
2022/02/09 06:29:55;;;;;;;8.70;6.33;;;9.90;98.00;;;;;;5020864;28;20174;-92
2022/02/09 06:32:21;;;;;;;9.17;6.07;;;9.90;98.30;;;;;;5025302;28;20174;-87
2022/02/09 06:34:48;;;;;;;7.53;6.10;;;10.00;98.20;;;;;;5017401;28;20270;-85
2022/02/09 06:37:25;;;;;;;7.90;5.87;;;9.90;98.10;;;;;;5018593;28;20253;-89
2022/02/09 06:39:57;;;;;;;8.23;7.00;;;9.90;98.10;;;;;;5020141;28;20202;-86
2022/02/09 06:42:25;;;;;;;7.47;6.33;;;10.00;97.70;;;;;;5021596;28;20162;-90
2022/02/09 06:45:02;;;;;;;9.37;6.37;;;10.00;97.50;;;;;;4988988;28;20261;-89
2022/02/09 06:47:29;;;;;;;6.80;6.10;;;9.90;97.90;;;;;;5018637;28;20185;-89
2022/02/09 06:50:02;;;;;;;7.63;6.50;;;10.00;97.70;;;;;;5019507;28;20635;-91
2022/02/09 06:52:28;;;;;;;7.50;5.80;;;10.10;97.30;;;;;;5020241;28;20162;-90
2022/02/09 06:57:59;;;;;;;7.57;6.13;;;9.80;97.50;;;;;;5020509;28;20225;-88
2022/02/09 07:00:25;;;;;;;8.47;6.20;;;9.80;97.70;;;;;;5016965;28;20166;-91
2022/02/09 07:02:51;;;;;;;11.43;6.10;;;9.80;97.10;;;;;;5030112;28;20174;-89
2022/02/09 07:05:19;;;;;;;8.43;6.47;;;9.80;96.30;;;;;;5018199;28;20179;-87
2022/02/09 07:07:45;;;;;;;8.63;6.10;;;10.00;95.90;;;;;;5018589;28;20178;-86
2022/02/09 07:10:12;;;;;;;10.17;6.70;;;9.90;95.30;;;;;;5018938;28;20242;-86
2022/02/09 07:12:39;;;;;;;9.50;6.73;;;9.90;95.60;;;;;;5020858;28;20202;-90
2022/02/09 07:15:09;;;;;;;8.47;6.27;;;9.90;95.50;;;;;;5017373;28;20174;-88
2022/02/09 07:17:35;;;;;;;9.23;5.97;;;9.90;95.50;;;;;;5020312;28;20248;-89
2022/02/09 07:20:10;;;;;;;8.93;5.83;;;9.90;94.70;;;;;;5021874;28;20630;-89
2022/02/09 07:22:37;;;;;;;8.37;5.90;;;9.90;93.80;;;;;;5022853;28;20178;-88
2022/02/09 07:25:16;;;;;;;10.33;5.90;;;9.90;93.50;;;;;;5020896;28;20272;-88
2022/02/09 07:27:53;;;;;;;6.87;5.37;;;10.00;92.80;;;;;;5015597;28;20282;-87
2022/02/09 07:30:24;;;;;;;8.60;5.33;;;9.90;93.20;;;;;;5018543;28;20199;-88
2022/02/09 07:32:59;;;;;;;7.07;5.67;;;10.00;92.70;;;;;;5017685;28;20246;-88
2022/02/09 07:35:28;;;;;;;8.57;5.70;;;9.90;92.80;;;;;;5021273;28;20177;-87
2022/02/09 07:37:54;;;;;;;8.27;6.10;;;9.90;93.30;;;;;;5028893;28;20233;-91
2022/02/09 07:40:20;;;;;;;9.37;6.53;;;10.00;93.80;;;;;;5019774;28;20634;-89
2022/02/09 07:42:57;;;;;;;8.07;6.33;;;10.00;93.70;;;;;;5025184;28;20174;-91
2022/02/09 07:48:52;;;;;;;10.60;6.30;;;9.90;94.10;;;;;;5022866;28;20597;-87
2022/02/09 07:50:59;;;;;;;11.13;7.57;;;10.00;94.30;;;;;;5029560;28;20186;-84
2022/02/09 07:53:36;;;;;;;10.30;7.67;;;9.90;95.00;;;;;;5023556;28;20161;-85
2022/02/09 07:56:04;;;;;;;14.37;7.73;;;9.90;95.50;;;;;;5025909;28;20185;-87
2022/02/09 07:58:29;;;;;;;10.97;8.63;;;10.00;95.90;;;;;;5027872;28;20532;-87
2022/02/09 08:00:55;;;;;;;10.23;8.43;;;10.10;95.60;;;;;;5030326;28;20175;-87
2022/02/09 08:03:24;;;;;;;11.30;7.90;;;10.00;95.70;;;;;;5030077;28;20246;-88
2022/02/09 08:05:50;;;;;;;12.43;8.90;;;10.00;96.00;;;;;;5029734;28;20174;-88
2022/02/09 08:08:16;;;;;;;11.13;8.67;;;10.10;95.50;;;;;;5031145;28;20178;-87
2022/02/09 08:30:00;;;;;;;11.37;8.33;;;10.10;94.80;;;;;;5025791;28;20178;-89
2022/02/09 08:34:54;;;;;;;12.10;8.83;;;10.00;95.30;;;;;;5028985;28;20234;-88
2022/02/09 08:37:20;;;;;;;12.40;8.13;;;10.00;95.90;;;;;;5025900;28;20222;-87
2022/02/09 08:39:48;;;;;;;13.33;8.83;;;10.10;95.20;;;;;;5022075;28;20178;-87
2022/02/09 08:42:14;;;;;;;13.07;8.53;;;10.10;94.60;;;;;;5022451;28;20205;-88
2022/02/09 08:44:40;;;;;;;12.90;8.53;;;10.10;94.30;;;;;;5020215;28;20650;-89
2022/02/09 08:47:06;;;;;;;12.43;8.73;;;10.00;95.30;;;;;;5021524;28;20279;-88
2022/02/09 08:49:32;;;;;;;14.53;8.27;;;10.00;95.10;;;;;;5022532;28;20187;-89
2022/02/09 08:51:58;;;;;;;11.33;7.97;;;10.20;94.40;;;;;;5022556;28;20184;-89
2022/02/09 08:54:25;;;;;;;13.53;8.10;;;10.30;93.50;;;;;;5022016;28;20248;-87
2022/02/09 08:56:56;;;;;;;11.17;7.43;;;10.30;93.60;;;;;;5023980;28;20201;-89
2022/02/09 08:59:27;;;;;;;12.17;8.00;;;10.30;93.90;;;;;;5029239;28;20735;-89
2022/02/09 09:02:04;;;;;;;10.00;7.33;;;10.30;93.30;;;;;;5037578;28;20186;-90
2022/02/09 09:04:40;;;;;;;11.83;7.80;;;10.30;93.20;;;;;;5019189;28;20190;-92
2022/02/09 09:07:17;;;;;;;13.70;8.47;;;10.30;93.30;;;;;;5039069;28;20185;-89
2022/02/09 09:09:58;;;;;;;12.50;7.87;;;10.20;93.10;;;;;;5035691;28;20174;-90
2022/02/09 09:41:37;;;;;;;12.97;7.70;;;10.40;93.70;;;;;;5027774;28;20170;-89
2022/02/09 10:33:13;;;;;;;11.33;7.97;;;11.40;83.00;;;;;;5037074;28;20178;-88
2022/02/09 10:35:49;;;;;;;13.03;8.93;;;11.40;81.20;;;;;;5027514;28;20242;-92
2022/02/09 10:38:28;;;;;;;10.83;7.80;;;11.50;79.90;;;;;;5021086;28;20217;-90
2022/02/09 10:41:07;;;;;;;12.23;8.80;;;11.60;77.40;;;;;;5023613;28;20162;-92
2022/02/09 10:43:35;;;;;;;13.23;8.30;;;11.40;81.40;;;;;;5022374;28;20175;-93
2022/02/09 10:46:20;;;;;;;14.23;7.70;;;11.40;81.20;;;;;;5023694;28;20182;-93
2022/02/09 10:48:55;;;;;;;10.23;7.67;;;11.30;81.00;;;;;;5021255;28;20183;-94
2022/02/09 10:51:38;;;;;;;13.23;8.37;;;11.40;80.20;;;;;;5020659;28;20181;-91
2022/02/09 10:54:19;;;;;;;12.33;8.10;;;11.40;82.10;;;;;;5022526;28;20178;-91
2022/02/09 10:56:52;;;;;;;11.80;8.80;;;11.50;81.10;;;;;;5019604;28;20188;-92
2022/02/09 10:59:21;;;;;;;15.93;9.60;;;11.50;82.10;;;;;;5019950;28;20252;-93
2022/02/09 11:01:47;;;;;;;13.77;8.93;;;11.50;82.70;;;;;;5022226;28;20702;-92
2022/02/09 11:04:13;;;;;;;15.50;9.40;;;11.50;82.80;;;;;;5020267;28;20188;-93
2022/02/09 11:06:41;;;;;;;15.30;10.20;;;11.50;82.90;;;;;;5021628;28;20178;-92
2022/02/09 11:09:10;;;;;;;15.20;10.33;;;11.60;83.00;;;;;;5003791;28;20186;-93
2022/02/09 11:11:39;;;;;;;19.60;11.53;;;11.50;84.60;;;;;;5024764;28;20178;-92
2022/02/09 11:14:06;;;;;;;16.97;10.07;;;11.70;86.10;;;;;;5021952;28;20182;-91
2022/02/09 11:16:39;;;;;;;18.00;10.13;;;11.60;85.10;;;;;;5021199;28;20654;-93
2022/02/09 11:19:06;;;;;;;16.40;9.93;;;11.60;84.30;;;;;;5022217;28;20210;-92
2022/02/09 11:21:35;;;;;;;14.93;9.47;;;11.70;85.10;;;;;;5022783;28;20193;-92
2022/02/09 11:24:14;;;;;;;18.87;10.57;;;11.60;85.00;;;;;;5020935;28;20201;-92
2022/02/09 11:26:53;;;;;;;14.60;10.20;;;11.70;84.20;;;;;;5001945;28;20206;-91
2022/02/09 11:35:05;;;;;;;14.73;9.60;;;11.70;79.70;;;;;;5012991;28;20247;-90
2022/02/09 11:38:18;;;;;;;13.70;8.83;;;11.90;79.70;;;;;;5011618;28;20223;-91
2022/02/09 11:41:09;;;;;;;13.70;7.53;;;12.10;78.90;;;;;;5014100;28;20207;-91
2022/02/09 11:44:07;;;;;;;9.20;5.83;;;12.00;77.00;;;;;;5020677;28;20190;-92
2022/02/09 11:46:59;;;;;;;10.73;6.13;;;11.80;75.80;;;;;;5006051;28;20235;-93
2022/02/09 11:50:08;;;;;;;7.37;4.83;;;11.80;75.30;;;;;;5007842;28;20195;-91
2022/02/09 12:09:52;;;;;;;6.37;3.43;;;12.10;58.20;;;;;;5031300;28;20202;-89
2022/02/09 12:12:38;;;;;;;7.30;3.27;;;12.00;61.00;;;;;;5037376;28;20170;-90
2022/02/09 12:15:32;;;;;;;5.27;3.10;;;12.10;59.40;;;;;;5036795;28;20170;-93
2022/02/09 12:18:25;;;;;;;6.07;3.20;;;12.20;56.80;;;;;;5035083;28;20218;-91
2022/02/09 12:21:17;;;;;;;9.83;3.50;;;12.30;57.80;;;;;;5018757;28;20205;-92
2022/02/09 12:24:33;;;;;;;7.17;3.43;;;12.40;58.60;;;;;;5032931;28;20199;-90
2022/02/09 12:27:08;;;;;;;6.40;3.70;;;12.40;58.20;;;;;;5027654;28;20175;-93
2022/02/09 12:29:47;;;;;;;6.57;3.63;;;12.50;57.60;;;;;;5028001;28;20189;-89
2022/02/09 12:32:18;;;;;;;7.27;3.60;;;12.40;57.20;;;;;;5003763;28;20183;-90
2022/02/09 12:34:58;;;;;;;8.40;3.93;;;12.50;56.80;;;;;;5022092;28;20202;-92
2022/02/09 12:37:45;;;;;;;9.73;3.43;;;12.50;57.30;;;;;;5025564;28;20202;-92
2022/02/09 12:40:17;;;;;;;5.27;3.37;;;12.60;54.60;;;;;;5003409;28;20201;-93
2022/02/09 12:42:46;;;;;;;5.83;3.57;;;12.50;53.90;;;;;;5002656;28;20176;-91
2022/02/09 12:45:53;;;;;;;6.07;3.33;;;12.40;56.60;;;;;;5023317;28;20162;-93
2022/02/09 12:48:26;;;;;;;6.03;3.53;;;12.30;59.20;;;;;;5041401;28;20177;-92
2022/02/09 12:50:52;;;;;;;6.83;3.30;;;12.20;59.40;;;;;;5017948;28;20197;-91
2022/02/09 12:53:21;;;;;;;8.87;4.30;;;12.10;63.20;;;;;;5013229;28;20182;-89
2022/02/09 12:55:47;;;;;;;6.13;3.13;;;12.20;64.40;;;;;;5034692;28;20250;-89
2022/02/09 12:58:15;;;;;;;6.03;3.00;;;12.30;61.40;;;;;;5032986;28;20209;-89
2022/02/09 13:00:49;;;;;;;6.13;2.70;;;12.30;60.40;;;;;;5033568;28;20182;-91
2022/02/09 13:03:20;;;;;;;4.23;3.03;;;12.30;60.30;;;;;;5034566;28;20205;-89
2022/02/09 13:05:57;;;;;;;6.87;3.67;;;12.20;62.50;;;;;;5033896;28;20194;-90
2022/02/09 13:08:31;;;;;;;5.27;2.73;;;12.30;62.60;;;;;;5031445;28;20183;-90
2022/02/09 13:11:24;;;;;;;5.50;3.23;;;12.30;60.60;;;;;;5016476;28;20186;-92
2022/02/09 13:13:56;;;;;;;5.30;2.90;;;12.30;60.30;;;;;;5027326;28;20186;-91
2022/02/09 13:20:09;;;;;;;5.40;3.20;;;12.50;58.50;;;;;;5026011;28;20213;-90
2022/02/09 14:11:09;;;;;;;6.10;2.90;;;12.60;50.10;;;;;;5026014;28;20539;-90
2022/02/09 14:16:35;;;;;;;5.57;2.83;;;12.50;54.80;;;;;;5033648;28;20180;-92
2022/02/09 14:19:23;;;;;;;6.67;3.47;;;12.60;55.50;;;;;;5035278;28;20209;-94
2022/02/09 14:56:14;;;;;;;6.67;3.37;;;12.80;52.50;;;;;;5032570;28;20242;-93
2022/02/09 14:58:45;;;;;;;4.90;2.90;;;12.70;51.70;;;;;;5030845;28;20216;-94
2022/02/09 15:01:21;;;;;;;6.43;3.00;;;12.70;53.80;;;;;;5013761;28;20217;-93
2022/02/09 15:04:22;;;;;;;5.20;2.87;;;12.60;53.30;;;;;;5023852;28;20212;-92
2022/02/09 15:07:02;;;;;;;9.57;4.10;;;12.60;55.60;;;;;;5028024;28;20240;-92
2022/02/09 15:09:52;;;;;;;9.70;3.80;;;12.50;56.70;;;;;;5032099;28;20189;-92
2022/02/09 15:15:27;;;;;;;7.33;3.50;;;12.50;57.50;;;;;;5030821;28;20262;-94
2022/02/09 15:21:19;;;;;;;7.60;3.30;;;12.30;61.10;;;;;;5028378;28;20177;-92
2022/02/09 15:24:05;;;;;;;8.13;3.90;;;12.20;64.20;;;;;;5033487;28;20201;-94
2022/02/09 15:27:11;;;;;;;7.70;4.00;;;12.40;60.90;;;;;;5016475;28;20196;-94
2022/02/09 15:29:55;;;;;;;10.00;3.63;;;12.20;63.60;;;;;;5034564;28;20186;-93
2022/02/09 15:32:44;;;;;;;7.90;4.17;;;12.30;62.60;;;;;;5034063;28;20256;-95
2022/02/09 15:35:25;;;;;;;9.70;3.70;;;12.10;64.40;;;;;;5033135;28;20177;-93
2022/02/09 15:41:05;;;;;;;5.90;3.47;;;12.20;62.40;;;;;;5032836;28;20233;-94
2022/02/09 16:07:02;;;;;;;8.37;3.53;;;12.30;62.30;;;;;;5032707;28;20613;-93
2022/02/09 16:09:17;;;;;;;8.03;3.53;;;12.20;62.50;;;;;;5026905;28;20252;-92
2022/02/09 16:22:51;;;;;;;8.97;3.47;;;12.00;68.00;;;;;;5017173;28;20266;-94
2022/02/09 16:46:57;;;;;;;5.87;3.33;;;12.10;65.90;;;;;;5039241;28;20178;-90
2022/02/09 16:49:56;;;;;;;6.13;3.83;;;12.00;66.70;;;;;;5037209;28;20174;-92
2022/02/09 16:52:31;;;;;;;6.87;3.60;;;12.00;66.50;;;;;;5036448;28;20181;-89
2022/02/09 17:19:02;;;;;;;7.77;4.10;;;12.30;59.20;;;;;;5030082;28;20204;-92
2022/02/09 17:21:28;;;;;;;7.83;4.90;;;12.30;60.50;;;;;;5030093;28;20210;-92
2022/02/09 17:24:00;;;;;;;7.03;4.10;;;12.30;61.50;;;;;;5029339;28;20623;-91
2022/02/09 17:26:27;;;;;;;10.07;4.60;;;12.30;60.70;;;;;;5027289;28;20187;-91
2022/02/09 17:29:03;;;;;;;10.97;4.47;;;12.40;59.40;;;;;;5011430;28;20199;-91
2022/02/09 17:31:48;;;;;;;8.40;4.93;;;12.30;61.30;;;;;;5040920;28;20242;-90
2022/02/09 17:34:44;;;;;;;6.77;4.63;;;12.40;58.80;;;;;;5026668;28;20233;-90
2022/02/09 17:37:26;;;;;;;9.73;4.60;;;12.40;58.50;;;;;;5026251;28;20195;-91
2022/02/09 17:53:48;;;;;;;9.97;4.60;;;12.40;59.00;;;;;;5033933;28;20320;-94
2022/02/09 17:56:24;;;;;;;8.70;4.33;;;12.50;57.10;;;;;;5036230;28;20181;-94
2022/02/09 17:58:53;;;;;;;8.00;5.40;;;12.40;58.70;;;;;;5031209;28;20221;-92
2022/02/09 18:01:24;;;;;;;10.30;5.53;;;12.30;59.30;;;;;;5031883;28;20209;-93
2022/02/09 18:04:00;;;;;;;8.73;5.77;;;12.40;59.00;;;;;;5029546;28;20182;-95
2022/02/09 18:06:31;;;;;;;9.13;6.37;;;12.40;59.60;;;;;;5030996;28;20243;-93
2022/02/09 18:09:25;;;;;;;8.50;6.47;;;12.20;62.40;;;;;;5033165;28;20171;-90
2022/02/09 18:31:36;;;;;;;13.67;7.73;;;12.10;66.50;;;;;;5033933;28;20254;-93
2022/02/09 18:45:53;;;;;;;12.40;6.70;;;11.80;68.90;;;;;;5032578;28;20182;-93
2022/02/09 19:06:38;;;;;;;12.43;7.70;;;11.90;66.20;;;;;;5033450;28;20200;-91
2022/02/09 19:14:27;;;;;;;14.67;8.97;;;12.00;64.00;;;;;;5016931;28;20201;-93
2022/02/09 19:19:57;;;;;;;14.10;8.70;;;12.20;60.30;;;;;;5014906;28;20205;-95
2022/02/09 19:31:24;;;;;;;14.13;8.83;;;11.60;74.70;;;;;;5028010;28;20213;-93
2022/02/09 19:49:07;;;;;;;18.20;9.97;;;11.30;79.50;;;;;;5053920;28;20177;-91
2022/02/09 19:52:47;;;;;;;14.93;9.70;;;11.30;80.10;;;;;;5035841;28;20178;-96
2022/02/09 19:55:33;;;;;;;15.50;10.07;;;11.30;80.30;;;;;;5034208;28;20182;-94
2022/02/09 19:58:19;;;;;;;15.97;11.93;;;11.30;80.20;;;;;;5013763;28;20199;-94
2022/02/09 20:00:57;;;;;;;12.17;9.10;;;11.50;77.90;;;;;;5049412;23;20182;-92
2022/02/09 20:03:27;;;;;;;14.23;9.77;;;11.40;76.00;;;;;;5019411;28;20166;-93
2022/02/09 20:05:54;;;;;;;17.77;10.80;;;11.40;77.50;;;;;;5000988;28;20189;-92
2022/02/09 20:08:26;;;;;;;13.67;10.50;;;11.50;77.10;;;;;;5018125;28;20167;-93
2022/02/09 20:10:52;;;;;;;13.80;10.03;;;11.50;75.80;;;;;;5049776;23;20221;-94
2022/02/09 20:13:19;;;;;;;16.87;10.87;;;11.40;75.90;;;;;;5023352;28;20179;-93
2022/02/09 20:15:45;;;;;;;12.67;10.07;;;11.30;77.90;;;;;;5029925;28;20158;-95
2022/02/09 20:18:12;;;;;;;21.70;10.70;;;11.20;80.20;;;;;;5024376;28;20293;-93
2022/02/09 20:20:42;;;;;;;15.07;9.90;;;11.20;81.80;;;;;;5026392;28;20212;-94
2022/02/09 20:23:12;;;;;;;13.67;10.63;;;11.20;81.50;;;;;;5030608;28;20190;-94
2022/02/09 20:25:49;;;;;;;19.20;11.23;;;11.30;79.80;;;;;;5019479;28;20249;-95
2022/02/09 20:29:00;;;;;;;16.07;10.33;;;11.40;79.40;;;;;;5021051;28;20190;-94
2022/02/09 20:31:32;;;;;;;16.90;10.80;;;11.40;78.80;;;;;;5003241;28;20193;-93
2022/02/09 20:34:09;;;;;;;16.30;11.03;;;11.40;76.80;;;;;;5020654;28;20178;-94
2022/02/09 20:36:40;;;;;;;17.47;11.27;;;11.30;78.10;;;;;;5024433;28;20166;-92
2022/02/09 20:39:51;;;;;;;15.57;10.87;;;11.30;79.60;;;;;;5026249;28;20321;-93
2022/02/09 20:42:25;;;;;;;16.33;10.83;;;11.00;80.90;;;;;;5020195;28;20179;-93
2022/02/09 20:45:10;;;;;;;17.50;11.63;;;11.20;81.40;;;;;;5022410;28;20194;-89
2022/02/09 20:48:00;;;;;;;15.33;10.03;;;11.20;80.90;;;;;;5019406;28;20226;-94
2022/02/09 20:50:40;;;;;;;17.77;11.27;;;11.40;78.00;;;;;;5019844;28;20230;-90
2022/02/09 20:53:14;;;;;;;15.57;11.17;;;11.30;79.10;;;;;;5016623;28;20182;-93
2022/02/09 20:55:49;;;;;;;15.87;10.80;;;11.20;80.60;;;;;;4998093;28;20205;-90
2022/02/09 20:58:44;;;;;;;19.23;10.97;;;11.20;80.30;;;;;;5011352;28;20300;-95
2022/02/09 21:01:14;;;;;;;14.97;10.80;;;11.30;79.80;;;;;;5005525;28;20170;-91
2022/02/09 21:04:07;;;;;;;15.77;11.40;;;11.20;79.30;;;;;;5021887;28;20170;-94
2022/02/09 21:06:55;;;;;;;16.10;10.93;;;11.00;81.50;;;;;;5010171;28;20174;-91
2022/02/09 21:42:07;;;;;;;14.07;11.67;;;10.80;84.70;;;;;;5025374;28;20220;-90
2022/02/09 21:57:39;;;;;;;17.53;11.43;;;10.70;86.00;;;;;;5022249;28;20204;-92
2022/02/09 22:00:27;;;;;;;18.80;12.17;;;10.60;86.90;;;;;;5021576;28;20187;-91
2022/02/09 22:30:42;;;;;;;17.73;12.67;;;10.70;86.70;;;;;;5023785;28;20174;-89
2022/02/09 22:46:38;;;;;;;17.67;12.60;;;10.40;88.00;;;;;;5015126;28;20185;-94
2022/02/09 22:54:29;;;;;;;19.53;13.07;;;10.40;88.40;;;;;;5006485;28;20186;-93
2022/02/09 22:56:56;;;;;;;18.73;13.20;;;10.50;86.70;;;;;;5005565;28;20190;-94
2022/02/09 23:02:09;;;;;;;19.23;13.13;;;10.60;86.80;;;;;;5005400;28;20189;-92
2022/02/09 23:04:55;;;;;;;17.97;13.30;;;10.80;85.00;;;;;;5005963;28;20202;-91
2022/02/09 23:07:30;;;;;;;18.97;14.17;;;10.90;80.30;;;;;;5012857;28;20175;-95
2022/02/09 23:12:53;;;;;;;19.30;13.10;;;10.90;79.00;;;;;;5005463;28;20185;-91
2022/02/09 23:15:41;;;;;;;18.03;13.03;;;10.70;80.30;;;;;;5006832;28;20220;-92
2022/02/09 23:18:40;;;;;;;18.57;12.70;;;10.70;80.40;;;;;;5016915;28;20215;-89
